Latest Weather Observations for Cobar Airport

IDN60801

Issued at 2:35 pm EDT Saturday 1 November 2014 (issued every 30 minutes, with the page automatically refreshed every 10 minutes)

About weather observations | Map of weather stations | Latest weather observations for NSW | Other Formats
Station Details ID: 048237 Name: COBAR AIRPORT AWS Lat: -31.54 Lon: 145.80 Height: 218.0 m
Data from the previous 72 hours. | See also: Recent months for locations in New South Wales
Date/Time
EDT
Temp
°C
App
Temp
°C
Dew
Point
Rel
Hum
%
Delta-T
°C
Wind Press
QNH
hPa
Press
MSL
hPa
Rain
since 9 am
mm
Dir
 
Spd
km/h
Gust
km/h
Spd
kts
Gust
kts
01/02:30pm 28.3 23.2 11.8 36 9.6 WSW 30 43 16 23 1008.6 1007.7 0.0
01/02:10pm 27.8 22.0 11.4 36 9.5 SW 33 52 18 28 1008.6 1007.7 0.0
01/02:00pm 28.0 21.7 11.1 35 9.7 SW 35 43 19 23 1008.7 1007.8 0.0
01/01:32pm 30.1 24.4 11.1 31 11.0 W 32 50 17 27 1008.2 1007.2 0.0
01/01:30pm 29.0 22.8 10.2 31 10.7 W 33 50 18 27 1008.2 1007.2 0.0
01/01:00pm 29.7 23.9 9.3 28 11.5 SW 30 48 16 26 1007.9 1006.9 0.0
01/12:59pm 29.4 24.0 9.5 29 11.3 SW 28 48 15 26 1007.9 1006.9 0.0
01/12:30pm 30.1 25.2 10.1 29 11.4 WSW 26 43 14 23 1007.6 1006.6 0.0
01/12:00pm 29.2 23.7 9.3 29 11.2 WSW 28 43 15 23 1007.7 1006.7 0.0
01/11:30am 28.4 22.8 8.7 29 10.9 W 28 32 15 17 1007.7 1006.7 0.0
01/11:00am 26.8 23.7 12.1 40 8.6 W 20 28 11 15 1007.6 1006.6 0.0
01/10:30am 26.0 23.5 13.5 46 7.4 W 19 26 10 14 1007.5 1006.9 0.0
01/10:00am 24.6 23.1 14.1 52 6.3 WNW 15 24 8 13 1007.1 1006.5 0.0
01/09:30am 24.4 22.4 13.9 52 6.2 NNW 17 20 9 11 1006.4 1005.8 0.0
01/09:00am 23.4 22.1 13.6 54 5.8 N 13 19 7 10 1006.1 1005.5 -
01/08:30am 23.5 22.7 13.9 55 5.7 NNW 11 20 6 11 1006.4 1005.8 -
01/08:00am 22.8 20.7 13.6 56 5.4 NNW 17 24 9 13 1006.8 1006.2 -
01/07:30am 22.8 21.5 13.6 56 5.4 NNW 13 19 7 10 1006.7 1006.1 -
01/07:00am 21.3 19.2 13.5 61 4.5 NW 17 22 9 12 1006.7 1006.1 -
01/06:30am 21.0 18.4 13.2 61 4.5 N 19 24 10 13 1004.8 1004.2 -
01/06:00am 20.7 18.0 12.9 61 4.5 NNE 19 24 10 13 1004.3 1003.7 -
01/05:30am 20.9 18.6 13.1 61 4.5 NNE 17 22 9 12 1004.4 1003.8 -
01/02:00am 23.5 20.6 12.2 49 6.5 NE 19 26 10 14 1005.8 1005.1 0.0
01/01:30am 23.8 20.2 11.8 47 6.9 NE 22 30 12 16 1006.0 1005.4 0.0
01/01:00am 24.1 20.5 11.8 46 7.1 NE 22 28 12 15 1006.4 1005.8 0.0
01/12:30am 24.6 21.0 11.9 45 7.3 NE 22 35 12 19 1006.7 1006.1 0.0
01/12:00am 25.0 21.3 11.6 43 7.7 NE 22 32 12 17 1006.8 1006.2 0.0
 
Date/Time
EDT
Temp
°C
App
Temp
°C
Dew
Point
Rel
Hum
%
Delta-T
°C
Wind Press
QNH
hPa
Press
MSL
hPa
Rain
since 9 am
mm
Dir
 
Spd
km/h
Gust
km/h
Spd
kts
Gust
kts
31/11:30pm 25.4 21.6 11.2 41 8.1 NNE 22 33 12 18 1007.0 1006.4 0.0
31/11:00pm 25.8 22.5 11.6 41 8.2 NE 20 28 11 15 1007.0 1006.4 0.0
31/10:30pm 26.2 21.5 11.9 41 8.3 NE 28 43 15 23 1007.1 1006.5 0.0
31/10:00pm 26.8 23.3 12.1 40 8.6 NE 22 35 12 19 1007.0 1006.4 0.0
31/09:30pm 27.4 22.6 11.8 38 9.1 NE 28 39 15 21 1006.8 1006.2 0.0
31/09:00pm 28.1 22.9 11.6 36 9.6 NE 30 43 16 23 1006.4 1005.8 0.0
31/08:30pm 29.4 23.1 11.0 32 10.6 NNE 35 50 19 27 1006.2 1005.6 0.0
31/08:20pm 30.7 24.0 7.2 23 12.9 NNE 32 39 17 21 1006.1 1005.5 0.0
31/08:00pm 31.1 28.6 4.8 19 13.9 NNE 7 9 4 5 1005.5 1004.8 0.0
31/07:30pm 32.5 30.3 3.5 16 15.1 NW 4 7 2 4 1005.2 1004.5 0.0
31/07:00pm 33.4 29.9 3.3 15 15.7 NW 11 15 6 8 1004.9 1004.3 0.0
31/06:30pm 33.8 28.4 4.5 16 15.6 N 22 30 12 16 1005.2 1004.5 0.0
31/06:00pm 33.6 27.8 4.3 16 15.6 N 24 35 13 19 1005.3 1004.6 0.0
31/05:30pm 34.0 28.8 3.7 15 15.9 N 20 32 11 17 1005.4 1004.7 0.0
31/05:00pm 34.5 28.1 3.1 14 16.5 N 26 35 14 19 1004.9 1004.3 0.0
31/04:30pm 36.4 30.4 1.2 11 18.0 NNW 22 33 12 18 1005.2 1004.5 0.0
31/04:00pm 35.7 29.8 -0.6 10 18.1 N 20 26 11 14 1005.6 1004.9 0.0
31/03:30pm 35.6 29.3 -0.7 10 18.0 N 22 32 12 17 1006.1 1005.5 0.0
31/03:00pm 35.2 27.6 -2.4 9 18.1 NNW 28 35 15 19 1006.7 1006.1 0.0
31/02:30pm 35.3 29.2 -2.3 9 18.1 NNW 20 33 11 18 1007.1 1006.5 0.0
31/02:00pm 35.6 28.8 -2.1 9 18.3 NNW 24 35 13 19 1007.7 1007.1 0.0
31/01:30pm 35.9 27.2 -3.5 8 18.7 N 33 52 18 28 1008.1 1007.5 0.0
31/01:22pm 37.0 28.6 -1.1 9 18.9 N 33 52 18 28 1008.0 1007.4 0.0
31/01:00pm 35.6 28.0 -2.1 9 18.3 N 28 43 15 23 1008.6 1008.0 0.0
31/12:30pm 36.0 28.1 -1.8 9 18.4 NW 30 43 16 23 1009.1 1008.5 0.0
31/12:19pm 36.1 28.6 -1.7 9 18.5 N 28 46 15 25 1009.4 1008.8 0.0
31/12:00pm 35.5 27.1 -0.8 10 17.9 NNE 33 43 18 23 1009.7 1009.1 0.0
31/11:30am 34.5 26.2 -1.5 10 17.5 N 32 44 17 24 1010.4 1009.8 0.0
31/11:20am 34.2 26.3 -1.7 10 17.3 N 30 48 16 26 1010.6 1010.0 0.0
31/11:00am 33.7 26.7 -0.8 11 16.9 NNE 26 35 14 19 1010.8 1010.2 0.0
31/10:30am 32.8 25.6 0.8 13 15.9 NNE 28 39 15 21 1011.3 1010.7 0.0
31/10:00am 31.4 24.2 0.7 14 15.1 NNE 28 35 15 19 1011.6 1011.0 0.0
31/09:30am 29.7 21.7 0.3 15 14.2 NNE 32 39 17 21 1011.9 1011.3 0.0
31/09:00am 28.6 21.3 0.3 16 13.6 NNE 28 37 15 20 1012.1 1011.5 0.0
31/08:30am 26.8 20.3 0.5 18 12.5 NNE 24 30 13 16 1012.1 1011.5 0.0
31/08:00am 24.6 19.1 0.8 21 11.2 NE 19 24 10 13 1012.1 1011.5 0.0
31/07:30am 22.9 18.7 1.8 25 10.0 NE 13 17 7 9 1011.9 1011.3 0.0
31/07:00am 20.7 17.7 2.0 29 8.7 ENE 7 11 4 6 1011.6 1011.0 0.0
31/06:30am 19.8 16.3 1.3 29 8.5 NE 9 13 5 7 1011.3 1010.7 0.0
31/06:00am 20.4 16.2 1.8 29 8.7 ENE 13 15 7 8 1010.8 1010.2 0.0
31/05:30am 17.0 13.1 -1.6 28 7.8 NE 9 11 5 6 1010.8 1010.2 0.0
31/05:00am 18.9 14.9 0.5 29 8.2 NE 11 13 6 7 1010.7 1010.1 0.0
31/04:30am 16.8 12.8 0.5 33 7.2 ENE 11 13 6 7 1010.4 1009.8 0.0
31/04:00am 15.3 13.0 -2.2 30 7.2 CALM 0 0 0 0 1010.6 1010.0 0.0
31/03:30am 15.4 13.1 -2.1 30 7.2 CALM 0 0 0 0 1010.8 1010.2 0.0
31/03:00am 16.1 13.8 -2.4 28 7.6 CALM 0 0 0 0 1010.9 1010.3 0.0
31/02:30am 16.8 14.5 -2.3 27 7.9 CALM 0 0 0 0 1011.2 1010.6 0.0
31/02:00am 17.3 14.9 -2.9 25 8.3 CALM 0 0 0 0 1011.6 1011.0 0.0
31/01:30am 19.4 15.4 -2.2 23 9.2 ENE 9 11 5 6 1011.9 1011.3 0.0
31/01:00am 19.5 15.6 -1.6 24 9.1 ENE 9 13 5 7 1012.0 1011.4 0.0
31/12:30am 19.2 15.2 -2.4 23 9.1 ENE 9 11 5 6 1012.2 1011.6 0.0
31/12:00am 18.3 14.3 -2.6 24 8.7 ENE 9 13 5 7 1012.2 1011.6 0.0
 
Date/Time
EDT
Temp
°C
App
Temp
°C
Dew
Point
Rel
Hum
%
Delta-T
°C
Wind Press
QNH
hPa
Press
MSL
hPa
Rain
since 9 am
mm
Dir
 
Spd
km/h
Gust
km/h
Spd
kts
Gust
kts
30/11:30pm 19.4 15.7 -2.8 22 9.3 ENE 7 9 4 5 1012.5 1011.9 0.0
30/11:00pm 19.8 16.2 -3.8 20 9.8 ENE 6 7 3 4 1012.6 1012.0 0.0
30/10:30pm 20.2 16.6 -2.2 22 9.6 ENE 7 7 4 4 1012.7 1012.1 0.0
30/10:00pm 20.8 18.0 -3.6 19 10.2 ENE 2 6 1 3 1012.7 1012.1 0.0
30/09:30pm 22.3 19.4 -3.9 17 11.1 ENE 2 9 1 5 1012.5 1011.9 0.0
30/09:00pm 23.6 19.8 -5.4 14 12.0 S 6 7 3 4 1012.3 1011.7 0.0
30/08:30pm 25.5 22.9 -4.9 13 13.0 CALM 0 0 0 0 1012.1 1011.5 0.0
30/08:00pm 27.5 23.6 -6.8 10 14.4 WSW 6 7 3 4 1011.8 1011.2 0.0
30/07:30pm 31.5 27.6 -6.7 8 16.6 W 6 7 3 4 1011.6 1011.0 0.0
30/07:00pm 32.8 28.2 -7.5 7 17.5 W 9 13 5 7 1011.5 1010.9 0.0
30/06:30pm 33.1 27.8 -7.3 7 17.6 WNW 13 20 7 11 1011.4 1010.8 0.0
30/06:00pm 33.4 28.3 -5.3 8 17.5 WSW 13 19 7 10 1011.5 1010.9 0.0
30/05:30pm 33.8 29.6 -3.5 9 17.4 WNW 9 20 5 11 1011.4 1010.8 0.0
30/05:00pm 33.4 29.2 -3.7 9 17.2 N 9 17 5 9 1011.5 1010.9 0.0
30/04:30pm 32.9 28.5 -2.7 10 16.7 SW 11 19 6 10 1011.7 1011.1 0.0
30/04:00pm 33.3 28.9 -2.4 10 16.9 SW 11 19 6 10 1012.0 1011.4 0.0
30/03:30pm 32.6 27.8 -2.9 10 16.6 S 13 24 7 13 1012.3 1011.7 0.0
30/03:00pm 32.1 27.2 -3.3 10 16.4 ESE 13 22 7 12 1012.8 1012.2 0.0
30/02:30pm 31.6 27.6 -2.4 11 15.9 SW 9 17 5 9 1013.5 1012.9 0.0
30/02:00pm 31.3 26.0 -3.9 10 16.0 N 15 26 8 14 1013.9 1013.4 0.0
30/01:30pm 31.2 27.1 -0.5 13 15.3 ENE 11 20 6 11 1014.4 1013.9 0.0
30/01:00pm 30.7 26.9 -0.8 13 15.1 N 9 13 5 7 1014.9 1014.3 0.0
30/12:30pm 29.6 26.5 1.1 16 14.0 N 7 11 4 6 1015.5 1014.9 0.0
30/12:00pm 30.2 27.3 1.6 16 14.2 ESE 6 11 3 6 1015.9 1015.3 0.0
30/11:30am 28.8 25.8 0.5 16 13.7 ENE 6 13 3 7 1016.4 1015.8 0.0
30/11:00am 28.3 25.8 3.9 21 12.4 N 6 11 3 6 1016.8 1016.2 0.0
30/10:30am 27.6 24.6 4.0 22 12.0 ENE 9 17 5 9 1016.8 1016.2 0.0
30/10:00am 26.5 22.7 3.7 23 11.4 NE 13 19 7 10 1017.0 1016.4 0.0
30/09:30am 25.8 21.6 3.7 24 11.1 ENE 15 20 8 11 1016.8 1016.2 0.0
30/09:00am 25.2 21.5 4.3 26 10.5 ENE 13 17 7 9 1016.8 1016.2 0.0
30/08:30am 22.5 18.7 4.1 30 9.1 ENE 13 17 7 9 1016.6 1016.0 0.0
30/08:00am 18.7 17.5 4.8 40 6.8 CALM 0 0 0 0 1016.6 1016.0 0.0
30/07:30am 16.6 14.6 4.3 44 5.8 NE 4 7 2 4 1016.1 1015.5 0.0
30/07:00am 13.2 11.6 2.7 49 4.7 CALM 0 0 0 0 1016.0 1015.4 0.0
30/06:30am 11.7 9.6 1.9 51 4.2 S 2 7 1 4 1015.8 1015.2 0.0
30/06:00am 12.2 10.5 2.1 50 4.4 CALM 0 0 0 0 1015.8 1015.2 0.0
30/05:30am 11.9 10.1 1.3 48 4.5 CALM 0 0 0 0 1015.7 1015.1 0.0
30/05:00am 12.6 10.9 1.9 48 4.7 CALM 0 0 0 0 1015.6 1015.0 0.0
30/04:30am 12.4 10.6 1.1 46 4.8 CALM 0 0 0 0 1015.1 1014.5 0.0
30/04:00am 13.3 11.5 1.3 44 5.2 CALM 0 0 0 0 1014.9 1014.3 0.0
30/03:30am 13.9 12.3 2.5 46 5.1 CALM 0 0 0 0 1015.0 1014.4 0.0
30/03:00am 13.5 11.6 0.5 41 5.5 CALM 0 0 0 0 1015.2 1014.6 0.0
30/02:30am 14.3 12.5 0.9 40 5.8 CALM 0 0 0 0 1015.2 1014.6 0.0
30/02:00am 15.6 14.0 2.4 41 6.0 CALM 0 0 0 0 1015.4 1014.8 0.0
30/01:30am 15.6 14.0 2.4 41 6.0 CALM 0 0 0 0 1015.7 1015.1 0.0
30/01:00am 16.2 14.6 2.2 39 6.3 CALM 0 0 0 0 1015.9 1015.3 0.0
30/12:30am 16.9 15.3 2.5 38 6.6 CALM 0 0 0 0 1016.0 1015.4 0.0
30/12:00am 17.5 15.9 2.3 36 7.0 CALM 0 0 0 0 1016.3 1015.7 0.0
 
Date/Time
EDT
Temp
°C
App
Temp
°C
Dew
Point
Rel
Hum
%
Delta-T
°C
Wind Press
QNH
hPa
Press
MSL
hPa
Rain
since 9 am
mm
Dir
 
Spd
km/h
Gust
km/h
Spd
kts
Gust
kts
29/11:30pm 18.0 16.4 2.7 36 7.1 CALM 0 0 0 0 1016.4 1015.8 0.0
29/11:00pm 19.1 17.6 2.9 34 7.6 CALM 0 0 0 0 1016.4 1015.8 0.0
29/10:30pm 20.4 18.8 2.7 31 8.4 CALM 0 0 0 0 1016.4 1015.8 0.0
29/10:00pm 20.7 19.2 3.0 31 8.4 CALM 0 6 0 3 1016.3 1015.7 0.0
29/09:30pm 21.7 19.0 2.9 29 9.0 SSW 6 7 3 4 1016.0 1015.4 0.0
29/09:00pm 23.3 20.8 3.8 28 9.6 SW 6 6 3 3 1015.7 1015.1 0.0
29/08:30pm 24.6 21.8 3.3 25 10.5 WSW 7 9 4 5 1015.5 1014.9 0.0
29/08:00pm 26.4 23.4 4.2 24 11.2 WSW 9 11 5 6 1015.2 1014.6 0.0
29/07:30pm 28.0 24.7 4.3 22 12.2 SW 11 13 6 7 1015.0 1014.4 0.0
29/07:00pm 28.7 25.0 4.2 21 12.6 SSW 13 26 7 14 1014.7 1014.1 0.0
29/06:30pm 29.3 24.9 4.7 21 12.8 SSW 17 26 9 14 1014.7 1014.1 0.0
29/06:00pm 29.3 24.3 4.7 21 12.8 SSW 20 24 11 13 1014.7 1014.1 0.0
29/05:30pm 29.8 26.2 5.1 21 13.0 WSW 13 24 7 13 1014.7 1014.1 0.0
29/05:00pm 29.5 25.9 4.9 21 12.9 W 13 24 7 13 1014.8 1014.2 0.0
29/04:30pm 29.6 25.2 5.0 21 12.9 SSW 17 24 9 13 1015.0 1014.4 0.0
29/04:00pm 28.8 23.9 5.0 22 12.4 WSW 20 28 11 15 1015.4 1014.8 0.0
29/03:30pm 29.7 24.2 5.7 22 12.7 WSW 24 30 13 16 1015.7 1015.1 0.0
29/03:00pm 28.4 25.5 4.6 22 12.3 WNW 9 17 5 9 1016.0 1015.4 0.0

Other Formats:

Comma delimited format used in spreadsheet applications
http://www.bom.gov.au/fwo/IDN60801/IDN60801.94710.axf

JavaScript Object Notation format (JSON) in row-major order
http://www.bom.gov.au/fwo/IDN60801/IDN60801.94710.json